sensor_id;sensor_type;location;lat;lon;timestamp;P1;durP1;ratioP1;P2;durP2;ratioP2
26181;SDS011;13927;51.534;11.866;2024-03-02T00:00:50;32.35;;;15.63;;
26181;SDS011;13927;51.534;11.866;2024-03-02T00:03:17;38.15;;;15.88;;
26181;SDS011;13927;51.534;11.866;2024-03-02T00:05:43;34.70;;;16.60;;
26181;SDS011;13927;51.534;11.866;2024-03-02T00:08:22;30.15;;;14.38;;
26181;SDS011;13927;51.534;11.866;2024-03-02T00:10:50;35.13;;;16.75;;
26181;SDS011;13927;51.534;11.866;2024-03-02T00:13:20;39.30;;;16.92;;
26181;SDS011;13927;51.534;11.866;2024-03-02T00:15:53;35.00;;;16.05;;
26181;SDS011;13927;51.534;11.866;2024-03-02T00:18:23;33.00;;;15.55;;
26181;SDS011;13927;51.534;11.866;2024-03-02T00:20:57;33.75;;;15.32;;
26181;SDS011;13927;51.534;11.866;2024-03-02T00:23:24;36.33;;;16.95;;
26181;SDS011;13927;51.534;11.866;2024-03-02T00:25:54;34.75;;;14.70;;
26181;SDS011;13927;51.534;11.866;2024-03-02T00:28:24;34.95;;;15.07;;
26181;SDS011;13927;51.534;11.866;2024-03-02T00:31:04;35.03;;;15.02;;
26181;SDS011;13927;51.534;11.866;2024-03-02T00:33:33;33.90;;;14.85;;
26181;SDS011;13927;51.534;11.866;2024-03-02T00:36:02;30.05;;;14.95;;
26181;SDS011;13927;51.534;11.866;2024-03-02T00:38:29;26.73;;;13.38;;
26181;SDS011;13927;51.534;11.866;2024-03-02T00:40:59;29.63;;;13.23;;
26181;SDS011;13927;51.534;11.866;2024-03-02T00:43:45;36.83;;;16.35;;
26181;SDS011;13927;51.534;11.866;2024-03-02T00:46:35;33.20;;;15.80;;
26181;SDS011;13927;51.534;11.866;2024-03-02T00:49:03;32.53;;;15.38;;
26181;SDS011;13927;51.534;11.866;2024-03-02T00:51:31;37.63;;;15.85;;
26181;SDS011;13927;51.534;11.866;2024-03-02T00:53:59;31.33;;;16.02;;
26181;SDS011;13927;51.534;11.866;2024-03-02T00:56:30;33.67;;;14.80;;
26181;SDS011;13927;51.534;11.866;2024-03-02T00:58:56;33.80;;;15.25;;
26181;SDS011;13927;51.534;11.866;2024-03-02T01:01:22;34.97;;;15.95;;
26181;SDS011;13927;51.534;11.866;2024-03-02T01:03:48;31.58;;;14.95;;
26181;SDS011;13927;51.534;11.866;2024-03-02T01:06:15;30.48;;;14.10;;
26181;SDS011;13927;51.534;11.866;2024-03-02T01:08:41;32.78;;;15.75;;
26181;SDS011;13927;51.534;11.866;2024-03-02T01:11:08;33.50;;;14.73;;
26181;SDS011;13927;51.534;11.866;2024-03-02T01:13:33;34.10;;;15.65;;
26181;SDS011;13927;51.534;11.866;2024-03-02T01:15:59;31.42;;;16.13;;
26181;SDS011;13927;51.534;11.866;2024-03-02T01:18:25;34.40;;;15.75;;
26181;SDS011;13927;51.534;11.866;2024-03-02T01:20:51;29.95;;;15.02;;
26181;SDS011;13927;51.534;11.866;2024-03-02T01:23:20;35.97;;;16.42;;
26181;SDS011;13927;51.534;11.866;2024-03-02T01:25:47;32.88;;;14.77;;
26181;SDS011;13927;51.534;11.866;2024-03-02T01:28:13;36.47;;;17.23;;
26181;SDS011;13927;51.534;11.866;2024-03-02T01:30:39;32.15;;;14.80;;
26181;SDS011;13927;51.534;11.866;2024-03-02T01:33:05;34.38;;;15.52;;
26181;SDS011;13927;51.534;11.866;2024-03-02T01:35:31;33.75;;;15.75;;
26181;SDS011;13927;51.534;11.866;2024-03-02T01:37:57;38.42;;;15.75;;
26181;SDS011;13927;51.534;11.866;2024-03-02T01:40:23;33.67;;;15.45;;
26181;SDS011;13927;51.534;11.866;2024-03-02T01:42:51;34.20;;;16.02;;
26181;SDS011;13927;51.534;11.866;2024-03-02T01:45:19;33.05;;;14.43;;
26181;SDS011;13927;51.534;11.866;2024-03-02T01:47:45;34.83;;;15.45;;
26181;SDS011;13927;51.534;11.866;2024-03-02T01:50:13;30.35;;;15.60;;
26181;SDS011;13927;51.534;11.866;2024-03-02T01:52:40;34.42;;;15.73;;
26181;SDS011;13927;51.534;11.866;2024-03-02T01:55:06;33.10;;;15.90;;
26181;SDS011;13927;51.534;11.866;2024-03-02T01:57:32;32.08;;;14.05;;
26181;SDS011;13927;51.534;11.866;2024-03-02T01:59:59;35.35;;;15.85;;
26181;SDS011;13927;51.534;11.866;2024-03-02T02:02:25;34.65;;;14.80;;
26181;SDS011;13927;51.534;11.866;2024-03-02T02:04:51;31.50;;;13.88;;
26181;SDS011;13927;51.534;11.866;2024-03-02T02:07:17;26.75;;;15.15;;
26181;SDS011;13927;51.534;11.866;2024-03-02T02:09:43;35.22;;;15.18;;
26181;SDS011;13927;51.534;11.866;2024-03-02T02:12:09;31.35;;;13.77;;
26181;SDS011;13927;51.534;11.866;2024-03-02T02:14:35;33.10;;;15.18;;
26181;SDS011;13927;51.534;11.866;2024-03-02T02:17:01;33.33;;;14.90;;
26181;SDS011;13927;51.534;11.866;2024-03-02T02:19:27;28.20;;;14.18;;
26181;SDS011;13927;51.534;11.866;2024-03-02T02:21:53;37.92;;;16.80;;
26181;SDS011;13927;51.534;11.866;2024-03-02T02:24:19;36.80;;;14.50;;
26181;SDS011;13927;51.534;11.866;2024-03-02T02:26:45;31.70;;;16.05;;
26181;SDS011;13927;51.534;11.866;2024-03-02T02:29:11;35.45;;;15.15;;
26181;SDS011;13927;51.534;11.866;2024-03-02T02:31:37;27.23;;;12.82;;
26181;SDS011;13927;51.534;11.866;2024-03-02T02:34:06;33.88;;;14.63;;
26181;SDS011;13927;51.534;11.866;2024-03-02T02:36:33;32.38;;;16.08;;
26181;SDS011;13927;51.534;11.866;2024-03-02T02:39:02;34.25;;;16.25;;
26181;SDS011;13927;51.534;11.866;2024-03-02T02:41:30;33.78;;;16.33;;
26181;SDS011;13927;51.534;11.866;2024-03-02T02:43:56;36.35;;;16.13;;
26181;SDS011;13927;51.534;11.866;2024-03-02T02:46:21;38.47;;;17.02;;
26181;SDS011;13927;51.534;11.866;2024-03-02T02:48:47;30.13;;;15.70;;
26181;SDS011;13927;51.534;11.866;2024-03-02T02:51:13;27.92;;;14.82;;
26181;SDS011;13927;51.534;11.866;2024-03-02T02:53:38;34.50;;;15.73;;
26181;SDS011;13927;51.534;11.866;2024-03-02T02:56:06;35.75;;;15.80;;
26181;SDS011;13927;51.534;11.866;2024-03-02T02:58:32;33.72;;;16.42;;
26181;SDS011;13927;51.534;11.866;2024-03-02T03:00:57;33.47;;;14.48;;
26181;SDS011;13927;51.534;11.866;2024-03-02T03:03:23;32.75;;;15.48;;
26181;SDS011;13927;51.534;11.866;2024-03-02T03:05:49;33.25;;;15.70;;
26181;SDS011;13927;51.534;11.866;2024-03-02T03:08:14;34.28;;;16.70;;
26181;SDS011;13927;51.534;11.866;2024-03-02T03:10:43;38.38;;;17.00;;
26181;SDS011;13927;51.534;11.866;2024-03-02T03:13:09;29.67;;;15.75;;
26181;SDS011;13927;51.534;11.866;2024-03-02T03:15:35;42.95;;;16.20;;
26181;SDS011;13927;51.534;11.866;2024-03-02T03:18:04;43.42;;;18.63;;
26181;SDS011;13927;51.534;11.866;2024-03-02T03:20:30;36.70;;;16.92;;
26181;SDS011;13927;51.534;11.866;2024-03-02T03:22:56;36.78;;;18.30;;
26181;SDS011;13927;51.534;11.866;2024-03-02T03:25:22;35.72;;;16.98;;
26181;SDS011;13927;51.534;11.866;2024-03-02T03:27:48;33.30;;;16.52;;
26181;SDS011;13927;51.534;11.866;2024-03-02T03:30:14;34.20;;;15.45;;
26181;SDS011;13927;51.534;11.866;2024-03-02T03:32:40;32.08;;;15.93;;
26181;SDS011;13927;51.534;11.866;2024-03-02T03:35:06;31.30;;;16.02;;
26181;SDS011;13927;51.534;11.866;2024-03-02T03:37:32;32.50;;;15.43;;
26181;SDS011;13927;51.534;11.866;2024-03-02T03:40:04;34.88;;;16.15;;
26181;SDS011;13927;51.534;11.866;2024-03-02T03:42:37;35.60;;;16.35;;
26181;SDS011;13927;51.534;11.866;2024-03-02T03:45:03;34.65;;;15.55;;
26181;SDS011;13927;51.534;11.866;2024-03-02T03:47:33;37.97;;;16.20;;
26181;SDS011;13927;51.534;11.866;2024-03-02T03:49:59;32.50;;;16.17;;
26181;SDS011;13927;51.534;11.866;2024-03-02T03:52:25;36.38;;;15.98;;
26181;SDS011;13927;51.534;11.866;2024-03-02T03:54:50;38.65;;;18.23;;
26181;SDS011;13927;51.534;11.866;2024-03-02T03:57:16;35.33;;;17.08;;
26181;SDS011;13927;51.534;11.866;2024-03-02T03:59:43;34.60;;;16.30;;
26181;SDS011;13927;51.534;11.866;2024-03-02T04:02:09;36.70;;;16.42;;
26181;SDS011;13927;51.534;11.866;2024-03-02T04:04:36;41.60;;;17.77;;
26181;SDS011;13927;51.534;11.866;2024-03-02T04:07:02;35.13;;;16.60;;
26181;SDS011;13927;51.534;11.866;2024-03-02T04:09:28;37.58;;;16.75;;
26181;SDS011;13927;51.534;11.866;2024-03-02T04:11:53;33.20;;;16.17;;
26181;SDS011;13927;51.534;11.866;2024-03-02T04:14:19;32.80;;;16.48;;
26181;SDS011;13927;51.534;11.866;2024-03-02T04:16:45;35.28;;;17.38;;
26181;SDS011;13927;51.534;11.866;2024-03-02T04:19:11;32.85;;;15.43;;
26181;SDS011;13927;51.534;11.866;2024-03-02T04:21:37;29.40;;;15.55;;
26181;SDS011;13927;51.534;11.866;2024-03-02T04:24:02;31.65;;;15.15;;
26181;SDS011;13927;51.534;11.866;2024-03-02T04:26:28;35.58;;;15.57;;
26181;SDS011;13927;51.534;11.866;2024-03-02T04:28:54;33.13;;;16.35;;
26181;SDS011;13927;51.534;11.866;2024-03-02T04:31:20;34.03;;;16.15;;
26181;SDS011;13927;51.534;11.866;2024-03-02T04:33:46;38.53;;;17.88;;
26181;SDS011;13927;51.534;11.866;2024-03-02T04:36:11;37.03;;;17.70;;
26181;SDS011;13927;51.534;11.866;2024-03-02T04:38:38;36.33;;;16.83;;
26181;SDS011;13927;51.534;11.866;2024-03-02T04:41:04;40.63;;;17.63;;
26181;SDS011;13927;51.534;11.866;2024-03-02T04:43:33;41.40;;;17.65;;
26181;SDS011;13927;51.534;11.866;2024-03-02T04:45:59;39.95;;;17.45;;
26181;SDS011;13927;51.534;11.866;2024-03-02T04:48:26;43.15;;;17.48;;
26181;SDS011;13927;51.534;11.866;2024-03-02T04:50:52;37.67;;;18.80;;
26181;SDS011;13927;51.534;11.866;2024-03-02T04:53:17;40.70;;;17.25;;
26181;SDS011;13927;51.534;11.866;2024-03-02T04:55:43;30.75;;;15.57;;
26181;SDS011;13927;51.534;11.866;2024-03-02T04:58:09;32.53;;;15.55;;
26181;SDS011;13927;51.534;11.866;2024-03-02T05:00:34;31.85;;;15.15;;
26181;SDS011;13927;51.534;11.866;2024-03-02T05:03:01;33.05;;;16.00;;
26181;SDS011;13927;51.534;11.866;2024-03-02T05:05:28;35.03;;;16.42;;
26181;SDS011;13927;51.534;11.866;2024-03-02T05:07:54;33.63;;;16.60;;
26181;SDS011;13927;51.534;11.866;2024-03-02T05:10:19;37.95;;;16.20;;
26181;SDS011;13927;51.534;11.866;2024-03-02T05:12:45;32.90;;;15.45;;
26181;SDS011;13927;51.534;11.866;2024-03-02T05:15:11;39.90;;;17.83;;
26181;SDS011;13927;51.534;11.866;2024-03-02T05:17:41;32.38;;;17.20;;
26181;SDS011;13927;51.534;11.866;2024-03-02T05:20:10;35.35;;;15.85;;
26181;SDS011;13927;51.534;11.866;2024-03-02T05:22:36;38.47;;;16.85;;
26181;SDS011;13927;51.534;11.866;2024-03-02T05:25:03;33.40;;;16.25;;
26181;SDS011;13927;51.534;11.866;2024-03-02T05:27:30;34.55;;;16.65;;
26181;SDS011;13927;51.534;11.866;2024-03-02T05:29:57;37.53;;;17.92;;
26181;SDS011;13927;51.534;11.866;2024-03-02T05:32:26;35.33;;;16.20;;
26181;SDS011;13927;51.534;11.866;2024-03-02T05:34:52;31.35;;;15.68;;
26181;SDS011;13927;51.534;11.866;2024-03-02T05:37:18;34.30;;;15.82;;
26181;SDS011;13927;51.534;11.866;2024-03-02T05:39:43;28.02;;;14.20;;
26181;SDS011;13927;51.534;11.866;2024-03-02T05:42:09;30.67;;;14.55;;
26181;SDS011;13927;51.534;11.866;2024-03-02T05:44:35;36.22;;;17.75;;
26181;SDS011;13927;51.534;11.866;2024-03-02T05:47:01;34.58;;;18.00;;
26181;SDS011;13927;51.534;11.866;2024-03-02T05:49:28;31.67;;;16.08;;
26181;SDS011;13927;51.534;11.866;2024-03-02T05:51:54;31.30;;;16.13;;
26181;SDS011;13927;51.534;11.866;2024-03-02T05:54:20;32.78;;;15.52;;
26181;SDS011;13927;51.534;11.866;2024-03-02T05:56:45;35.03;;;15.18;;
26181;SDS011;13927;51.534;11.866;2024-03-02T05:59:11;28.85;;;15.02;;
26181;SDS011;13927;51.534;11.866;2024-03-02T06:01:38;28.95;;;15.18;;
26181;SDS011;13927;51.534;11.866;2024-03-02T06:04:08;37.17;;;17.00;;
26181;SDS011;13927;51.534;11.866;2024-03-02T06:06:36;36.17;;;17.50;;
26181;SDS011;13927;51.534;11.866;2024-03-02T06:09:02;30.52;;;15.63;;
26181;SDS011;13927;51.534;11.866;2024-03-02T06:11:49;30.50;;;15.23;;
26181;SDS011;13927;51.534;11.866;2024-03-02T06:14:15;36.90;;;16.80;;
26181;SDS011;13927;51.534;11.866;2024-03-02T06:16:41;36.75;;;17.45;;
26181;SDS011;13927;51.534;11.866;2024-03-02T06:19:07;32.25;;;15.20;;
26181;SDS011;13927;51.534;11.866;2024-03-02T06:21:33;32.92;;;15.60;;
26181;SDS011;13927;51.534;11.866;2024-03-02T06:23:58;34.10;;;16.08;;
26181;SDS011;13927;51.534;11.866;2024-03-02T06:26:24;37.72;;;17.27;;
26181;SDS011;13927;51.534;11.866;2024-03-02T06:28:50;39.65;;;18.23;;
26181;SDS011;13927;51.534;11.866;2024-03-02T06:31:15;41.00;;;17.90;;
26181;SDS011;13927;51.534;11.866;2024-03-02T06:33:41;33.08;;;15.70;;
26181;SDS011;13927;51.534;11.866;2024-03-02T06:36:07;38.83;;;19.05;;
26181;SDS011;13927;51.534;11.866;2024-03-02T06:38:36;32.65;;;16.48;;
26181;SDS011;13927;51.534;11.866;2024-03-02T06:41:02;31.45;;;17.00;;
26181;SDS011;13927;51.534;11.866;2024-03-02T06:43:28;35.72;;;17.60;;
26181;SDS011;13927;51.534;11.866;2024-03-02T06:45:54;37.17;;;18.38;;
26181;SDS011;13927;51.534;11.866;2024-03-02T06:48:20;27.48;;;14.88;;
26181;SDS011;13927;51.534;11.866;2024-03-02T06:50:46;31.90;;;15.65;;
26181;SDS011;13927;51.534;11.866;2024-03-02T06:53:15;33.42;;;15.63;;
26181;SDS011;13927;51.534;11.866;2024-03-02T06:55:43;30.42;;;14.55;;
26181;SDS011;13927;51.534;11.866;2024-03-02T06:58:12;30.75;;;15.15;;
26181;SDS011;13927;51.534;11.866;2024-03-02T07:00:40;28.58;;;15.82;;
26181;SDS011;13927;51.534;11.866;2024-03-02T07:03:06;31.48;;;16.30;;
26181;SDS011;13927;51.534;11.866;2024-03-02T07:05:32;30.33;;;14.38;;
26181;SDS011;13927;51.534;11.866;2024-03-02T07:07:58;31.08;;;16.48;;
26181;SDS011;13927;51.534;11.866;2024-03-02T07:10:24;34.65;;;16.75;;
26181;SDS011;13927;51.534;11.866;2024-03-02T07:12:50;32.25;;;16.08;;
26181;SDS011;13927;51.534;11.866;2024-03-02T07:15:15;30.23;;;15.40;;
26181;SDS011;13927;51.534;11.866;2024-03-02T07:18:08;34.53;;;16.60;;
26181;SDS011;13927;51.534;11.866;2024-03-02T07:20:33;37.90;;;18.77;;
26181;SDS011;13927;51.534;11.866;2024-03-02T07:22:59;32.90;;;16.73;;
26181;SDS011;13927;51.534;11.866;2024-03-02T07:25:25;35.97;;;17.83;;
26181;SDS011;13927;51.534;11.866;2024-03-02T07:27:50;35.75;;;18.35;;
26181;SDS011;13927;51.534;11.866;2024-03-02T07:30:17;33.80;;;16.23;;
26181;SDS011;13927;51.534;11.866;2024-03-02T07:32:43;33.65;;;15.77;;
26181;SDS011;13927;51.534;11.866;2024-03-02T07:35:11;31.75;;;15.63;;
26181;SDS011;13927;51.534;11.866;2024-03-02T07:37:40;34.17;;;15.60;;
26181;SDS011;13927;51.534;11.866;2024-03-02T07:40:07;30.52;;;14.90;;
26181;SDS011;13927;51.534;11.866;2024-03-02T07:42:36;27.75;;;13.90;;
26181;SDS011;13927;51.534;11.866;2024-03-02T07:45:04;30.33;;;15.85;;
26181;SDS011;13927;51.534;11.866;2024-03-02T07:47:31;28.80;;;14.52;;
26181;SDS011;13927;51.534;11.866;2024-03-02T07:49:59;32.30;;;16.05;;
26181;SDS011;13927;51.534;11.866;2024-03-02T07:52:25;31.58;;;16.02;;
26181;SDS011;13927;51.534;11.866;2024-03-02T07:54:50;28.55;;;15.43;;
26181;SDS011;13927;51.534;11.866;2024-03-02T07:57:16;24.90;;;13.82;;
26181;SDS011;13927;51.534;11.866;2024-03-02T07:59:42;33.42;;;15.32;;
26181;SDS011;13927;51.534;11.866;2024-03-02T08:02:08;29.05;;;15.50;;
26181;SDS011;13927;51.534;11.866;2024-03-02T08:04:34;31.50;;;14.80;;
26181;SDS011;13927;51.534;11.866;2024-03-02T08:07:00;25.00;;;15.02;;
26181;SDS011;13927;51.534;11.866;2024-03-02T08:09:26;32.13;;;15.02;;
26181;SDS011;13927;51.534;11.866;2024-03-02T08:11:52;32.22;;;15.05;;
26181;SDS011;13927;51.534;11.866;2024-03-02T08:14:18;26.20;;;13.95;;
26181;SDS011;13927;51.534;11.866;2024-03-02T08:16:43;30.15;;;15.02;;
26181;SDS011;13927;51.534;11.866;2024-03-02T08:19:10;28.23;;;15.38;;
26181;SDS011;13927;51.534;11.866;2024-03-02T08:21:36;33.40;;;16.58;;
26181;SDS011;13927;51.534;11.866;2024-03-02T08:24:02;27.80;;;16.38;;
26181;SDS011;13927;51.534;11.866;2024-03-02T08:26:28;37.17;;;17.85;;
26181;SDS011;13927;51.534;11.866;2024-03-02T08:28:56;30.92;;;16.58;;
26181;SDS011;13927;51.534;11.866;2024-03-02T08:31:24;34.28;;;17.02;;
26181;SDS011;13927;51.534;11.866;2024-03-02T08:33:50;31.60;;;16.20;;
26181;SDS011;13927;51.534;11.866;2024-03-02T08:36:16;30.98;;;15.57;;
26181;SDS011;13927;51.534;11.866;2024-03-02T08:38:42;29.55;;;15.50;;
26181;SDS011;13927;51.534;11.866;2024-03-02T08:41:09;30.40;;;15.85;;
26181;SDS011;13927;51.534;11.866;2024-03-02T08:43:38;35.08;;;15.48;;
26181;SDS011;13927;51.534;11.866;2024-03-02T08:46:07;31.20;;;15.77;;
26181;SDS011;13927;51.534;11.866;2024-03-02T08:48:32;36.60;;;18.88;;
26181;SDS011;13927;51.534;11.866;2024-03-02T08:50:59;34.83;;;17.27;;
26181;SDS011;13927;51.534;11.866;2024-03-02T08:53:25;32.15;;;16.65;;
26181;SDS011;13927;51.534;11.866;2024-03-02T08:55:51;34.15;;;17.50;;
26181;SDS011;13927;51.534;11.866;2024-03-02T08:58:17;32.13;;;16.30;;
26181;SDS011;13927;51.534;11.866;2024-03-02T09:00:43;33.75;;;16.90;;
26181;SDS011;13927;51.534;11.866;2024-03-02T09:03:09;30.67;;;16.73;;
26181;SDS011;13927;51.534;11.866;2024-03-02T09:05:36;32.83;;;18.08;;
26181;SDS011;13927;51.534;11.866;2024-03-02T09:08:02;35.60;;;18.33;;
26181;SDS011;13927;51.534;11.866;2024-03-02T09:10:28;30.50;;;16.45;;
26181;SDS011;13927;51.534;11.866;2024-03-02T09:12:54;32.15;;;16.02;;
26181;SDS011;13927;51.534;11.866;2024-03-02T09:15:21;31.33;;;16.98;;
26181;SDS011;13927;51.534;11.866;2024-03-02T09:17:47;33.17;;;16.80;;
26181;SDS011;13927;51.534;11.866;2024-03-02T09:20:13;30.02;;;16.52;;
26181;SDS011;13927;51.534;11.866;2024-03-02T09:22:39;27.15;;;14.75;;
26181;SDS011;13927;51.534;11.866;2024-03-02T09:25:05;28.58;;;15.35;;
26181;SDS011;13927;51.534;11.866;2024-03-02T09:27:35;33.67;;;16.52;;
26181;SDS011;13927;51.534;11.866;2024-03-02T09:30:04;30.45;;;14.38;;
26181;SDS011;13927;51.534;11.866;2024-03-02T09:32:33;29.58;;;14.95;;
26181;SDS011;13927;51.534;11.866;2024-03-02T09:34:59;27.10;;;15.38;;
26181;SDS011;13927;51.534;11.866;2024-03-02T09:37:26;30.58;;;15.52;;
26181;SDS011;13927;51.534;11.866;2024-03-02T09:39:52;28.33;;;15.25;;
26181;SDS011;13927;51.534;11.866;2024-03-02T09:42:18;37.15;;;18.85;;
26181;SDS011;13927;51.534;11.866;2024-03-02T09:44:44;37.58;;;19.13;;
26181;SDS011;13927;51.534;11.866;2024-03-02T09:47:13;34.28;;;18.90;;
26181;SDS011;13927;51.534;11.866;2024-03-02T09:49:42;32.92;;;17.70;;
26181;SDS011;13927;51.534;11.866;2024-03-02T09:52:10;33.85;;;17.60;;
26181;SDS011;13927;51.534;11.866;2024-03-02T09:54:38;29.25;;;15.10;;
26181;SDS011;13927;51.534;11.866;2024-03-02T09:57:08;28.52;;;15.30;;
26181;SDS011;13927;51.534;11.866;2024-03-02T09:59:38;29.30;;;15.57;;
26181;SDS011;13927;51.534;11.866;2024-03-02T10:02:12;30.33;;;15.52;;
26181;SDS011;13927;51.534;11.866;2024-03-02T10:04:44;31.92;;;15.60;;
26181;SDS011;13927;51.534;11.866;2024-03-02T10:07:19;26.92;;;15.30;;
26181;SDS011;13927;51.534;11.866;2024-03-02T10:09:51;25.27;;;13.70;;
26181;SDS011;13927;51.534;11.866;2024-03-02T10:12:21;28.85;;;14.27;;
26181;SDS011;13927;51.534;11.866;2024-03-02T10:17:35;24.05;;;13.45;;
26181;SDS011;13927;51.534;11.866;2024-03-02T10:20:24;28.70;;;13.43;;
26181;SDS011;13927;51.534;11.866;2024-03-02T10:22:55;22.83;;;12.43;;
26181;SDS011;13927;51.534;11.866;2024-03-02T10:25:47;25.27;;;13.70;;
26181;SDS011;13927;51.534;11.866;2024-03-02T10:28:20;26.77;;;13.32;;
26181;SDS011;13927;51.534;11.866;2024-03-02T10:30:51;25.50;;;13.10;;
26181;SDS011;13927;51.534;11.866;2024-03-02T10:33:22;22.45;;;11.93;;
26181;SDS011;13927;51.534;11.866;2024-03-02T10:35:55;23.77;;;13.05;;
26181;SDS011;13927;51.534;11.866;2024-03-02T10:38:28;22.85;;;12.85;;
26181;SDS011;13927;51.534;11.866;2024-03-02T10:40:59;23.53;;;11.97;;
26181;SDS011;13927;51.534;11.866;2024-03-02T10:43:32;23.63;;;12.93;;
26181;SDS011;13927;51.534;11.866;2024-03-02T10:46:02;26.20;;;13.27;;
26181;SDS011;13927;51.534;11.866;2024-03-02T10:48:31;20.33;;;11.23;;
26181;SDS011;13927;51.534;11.866;2024-03-02T10:51:04;20.20;;;12.35;;
26181;SDS011;13927;51.534;11.866;2024-03-02T10:53:40;24.08;;;11.98;;
26181;SDS011;13927;51.534;11.866;2024-03-02T10:56:15;24.35;;;13.05;;
26181;SDS011;13927;51.534;11.866;2024-03-02T10:59:32;22.17;;;12.13;;
26181;SDS011;13927;51.534;11.866;2024-03-02T11:02:07;23.48;;;12.30;;
26181;SDS011;13927;51.534;11.866;2024-03-02T11:04:40;21.55;;;13.32;;
26181;SDS011;13927;51.534;11.866;2024-03-02T11:07:18;23.63;;;12.60;;
26181;SDS011;13927;51.534;11.866;2024-03-02T11:09:59;25.08;;;13.02;;
26181;SDS011;13927;51.534;11.866;2024-03-02T11:12:48;21.50;;;12.20;;
26181;SDS011;13927;51.534;11.866;2024-03-02T11:15:35;23.17;;;12.48;;
26181;SDS011;13927;51.534;11.866;2024-03-02T11:18:05;25.23;;;13.32;;
26181;SDS011;13927;51.534;11.866;2024-03-02T11:20:41;20.23;;;12.32;;
26181;SDS011;13927;51.534;11.866;2024-03-02T11:23:18;20.27;;;11.13;;
26181;SDS011;13927;51.534;11.866;2024-03-02T11:28:55;19.95;;;12.30;;
26181;SDS011;13927;51.534;11.866;2024-03-02T11:50:15;17.90;;;10.57;;
26181;SDS011;13927;51.534;11.866;2024-03-02T11:54:00;18.33;;;11.13;;
26181;SDS011;13927;51.534;11.866;2024-03-02T11:57:18;17.50;;;10.07;;
26181;SDS011;13927;51.534;11.866;2024-03-02T12:00:16;17.33;;;11.13;;
26181;SDS011;13927;51.534;11.866;2024-03-02T12:05:56;17.02;;;9.40;;
26181;SDS011;13927;51.534;11.866;2024-03-02T12:08:26;18.73;;;10.27;;
26181;SDS011;13927;51.534;11.866;2024-03-02T12:11:17;20.88;;;10.98;;
26181;SDS011;13927;51.534;11.866;2024-03-02T13:43:25;10.27;;;6.18;;
26181;SDS011;13927;51.534;11.866;2024-03-02T13:45:51;13.63;;;6.90;;
26181;SDS011;13927;51.534;11.866;2024-03-02T13:48:18;10.68;;;6.95;;
26181;SDS011;13927;51.534;11.866;2024-03-02T15:11:02;9.43;;;5.55;;
26181;SDS011;13927;51.534;11.866;2024-03-02T15:14:18;11.17;;;5.17;;
26181;SDS011;13927;51.534;11.866;2024-03-02T15:16:57;7.18;;;4.68;;
26181;SDS011;13927;51.534;11.866;2024-03-02T15:19:29;7.57;;;5.37;;
26181;SDS011;13927;51.534;11.866;2024-03-02T15:22:11;7.43;;;5.18;;
26181;SDS011;13927;51.534;11.866;2024-03-02T15:28:09;7.97;;;5.18;;
26181;SDS011;13927;51.534;11.866;2024-03-02T15:30:50;7.30;;;4.55;;
26181;SDS011;13927;51.534;11.866;2024-03-02T15:33:19;7.95;;;5.47;;
26181;SDS011;13927;51.534;11.866;2024-03-02T15:35:46;8.55;;;5.10;;
26181;SDS011;13927;51.534;11.866;2024-03-02T15:38:32;9.32;;;5.47;;
26181;SDS011;13927;51.534;11.866;2024-03-02T15:41:01;9.43;;;5.25;;
26181;SDS011;13927;51.534;11.866;2024-03-02T15:43:28;6.80;;;4.50;;
26181;SDS011;13927;51.534;11.866;2024-03-02T15:46:02;8.15;;;4.72;;
26181;SDS011;13927;51.534;11.866;2024-03-02T15:48:28;7.07;;;4.60;;
26181;SDS011;13927;51.534;11.866;2024-03-02T15:50:54;7.72;;;4.70;;
26181;SDS011;13927;51.534;11.866;2024-03-02T15:53:20;10.50;;;5.25;;
26181;SDS011;13927;51.534;11.866;2024-03-02T15:55:46;7.72;;;4.47;;
26181;SDS011;13927;51.534;11.866;2024-03-02T15:58:15;6.13;;;4.28;;
26181;SDS011;13927;51.534;11.866;2024-03-02T16:00:40;6.60;;;4.70;;
26181;SDS011;13927;51.534;11.866;2024-03-02T16:03:06;6.00;;;4.25;;
26181;SDS011;13927;51.534;11.866;2024-03-02T16:05:32;8.00;;;5.05;;
26181;SDS011;13927;51.534;11.866;2024-03-02T16:07:58;9.02;;;4.93;;
26181;SDS011;13927;51.534;11.866;2024-03-02T16:10:23;7.85;;;4.72;;
26181;SDS011;13927;51.534;11.866;2024-03-02T16:12:50;9.43;;;5.55;;
26181;SDS011;13927;51.534;11.866;2024-03-02T16:15:16;8.65;;;5.68;;
26181;SDS011;13927;51.534;11.866;2024-03-02T16:17:42;9.30;;;5.32;;
26181;SDS011;13927;51.534;11.866;2024-03-02T16:20:08;7.75;;;4.75;;
26181;SDS011;13927;51.534;11.866;2024-03-02T16:22:35;8.70;;;4.50;;
26181;SDS011;13927;51.534;11.866;2024-03-02T16:25:01;9.15;;;5.18;;
26181;SDS011;13927;51.534;11.866;2024-03-02T16:27:28;8.40;;;5.25;;
26181;SDS011;13927;51.534;11.866;2024-03-02T16:29:54;7.90;;;4.55;;
26181;SDS011;13927;51.534;11.866;2024-03-02T16:32:20;8.63;;;4.53;;
26181;SDS011;13927;51.534;11.866;2024-03-02T16:34:45;7.97;;;4.07;;
26181;SDS011;13927;51.534;11.866;2024-03-02T16:37:11;7.80;;;4.72;;
26181;SDS011;13927;51.534;11.866;2024-03-02T16:39:37;9.70;;;4.57;;
26181;SDS011;13927;51.534;11.866;2024-03-02T16:42:03;7.70;;;4.15;;
26181;SDS011;13927;51.534;11.866;2024-03-02T16:44:28;8.18;;;4.45;;
26181;SDS011;13927;51.534;11.866;2024-03-02T16:46:54;6.95;;;4.20;;
26181;SDS011;13927;51.534;11.866;2024-03-02T16:49:20;8.77;;;4.63;;
26181;SDS011;13927;51.534;11.866;2024-03-02T16:51:45;9.70;;;5.95;;
26181;SDS011;13927;51.534;11.866;2024-03-02T16:54:12;7.50;;;4.57;;
26181;SDS011;13927;51.534;11.866;2024-03-02T16:56:41;9.07;;;4.22;;
26181;SDS011;13927;51.534;11.866;2024-03-02T16:59:09;6.93;;;3.83;;
26181;SDS011;13927;51.534;11.866;2024-03-02T17:01:35;8.10;;;4.25;;
26181;SDS011;13927;51.534;11.866;2024-03-02T17:04:01;8.35;;;4.43;;
26181;SDS011;13927;51.534;11.866;2024-03-02T17:06:29;8.48;;;4.53;;
26181;SDS011;13927;51.534;11.866;2024-03-02T17:08:55;8.73;;;4.70;;
26181;SDS011;13927;51.534;11.866;2024-03-02T17:11:21;6.60;;;4.03;;
26181;SDS011;13927;51.534;11.866;2024-03-02T17:13:47;7.55;;;4.88;;
26181;SDS011;13927;51.534;11.866;2024-03-02T17:16:13;8.05;;;4.28;;
26181;SDS011;13927;51.534;11.866;2024-03-02T17:18:43;10.40;;;5.45;;
26181;SDS011;13927;51.534;11.866;2024-03-02T17:21:09;10.30;;;5.13;;
26181;SDS011;13927;51.534;11.866;2024-03-02T17:23:35;11.30;;;6.07;;
26181;SDS011;13927;51.534;11.866;2024-03-02T17:26:00;9.00;;;5.30;;
26181;SDS011;13927;51.534;11.866;2024-03-02T17:28:26;9.85;;;5.38;;
26181;SDS011;13927;51.534;11.866;2024-03-02T17:30:53;9.55;;;5.53;;
26181;SDS011;13927;51.534;11.866;2024-03-02T17:36:13;12.02;;;6.28;;
26181;SDS011;13927;51.534;11.866;2024-03-02T17:38:40;11.88;;;6.68;;
26181;SDS011;13927;51.534;11.866;2024-03-02T17:41:06;13.05;;;6.90;;
26181;SDS011;13927;51.534;11.866;2024-03-02T17:43:39;12.13;;;6.95;;
26181;SDS011;13927;51.534;11.866;2024-03-02T17:46:12;12.23;;;7.00;;